sensor_id;sensor_type;location;lat;lon;timestamp;temperature;humidity
10980;DHT22;5543;51.734;8.744;2023-06-05T00:00:39;11.20;99.90
10980;DHT22;5543;51.734;8.744;2023-06-05T00:03:07;10.90;99.90
10980;DHT22;5543;51.734;8.744;2023-06-05T00:05:35;10.60;99.90
10980;DHT22;5543;51.734;8.744;2023-06-05T00:08:04;11.20;99.90
10980;DHT22;5543;51.734;8.744;2023-06-05T00:10:32;10.50;99.90
10980;DHT22;5543;51.734;8.744;2023-06-05T00:13:00;11.30;99.90
10980;DHT22;5543;51.734;8.744;2023-06-05T00:15:29;10.60;99.90
10980;DHT22;5543;51.734;8.744;2023-06-05T00:18:00;10.40;99.90
10980;DHT22;5543;51.734;8.744;2023-06-05T00:20:29;10.60;99.90
10980;DHT22;5543;51.734;8.744;2023-06-05T00:22:57;10.80;99.90
10980;DHT22;5543;51.734;8.744;2023-06-05T00:25:26;11.50;99.90
10980;DHT22;5543;51.734;8.744;2023-06-05T00:27:54;10.40;99.90
10980;DHT22;5543;51.734;8.744;2023-06-05T00:30:22;10.60;99.90
10980;DHT22;5543;51.734;8.744;2023-06-05T00:32:52;10.60;99.90
10980;DHT22;5543;51.734;8.744;2023-06-05T00:35:20;10.50;99.90
10980;DHT22;5543;51.734;8.744;2023-06-05T00:37:48;10.60;99.90
10980;DHT22;5543;51.734;8.744;2023-06-05T00:40:17;10.60;99.90
10980;DHT22;5543;51.734;8.744;2023-06-05T00:42:45;10.60;99.90
10980;DHT22;5543;51.734;8.744;2023-06-05T00:45:13;10.60;99.90
10980;DHT22;5543;51.734;8.744;2023-06-05T00:47:41;10.60;99.90
10980;DHT22;5543;51.734;8.744;2023-06-05T00:50:11;10.60;99.90
10980;DHT22;5543;51.734;8.744;2023-06-05T00:52:40;11.00;99.90
10980;DHT22;5543;51.734;8.744;2023-06-05T00:55:10;11.00;99.90
10980;DHT22;5543;51.734;8.744;2023-06-05T00:57:38;11.00;99.90
10980;DHT22;5543;51.734;8.744;2023-06-05T01:00:08;10.40;99.90
10980;DHT22;5543;51.734;8.744;2023-06-05T01:02:40;10.30;99.90
10980;DHT22;5543;51.734;8.744;2023-06-05T01:05:10;10.30;99.90
10980;DHT22;5543;51.734;8.744;2023-06-05T01:07:40;10.30;99.90
10980;DHT22;5543;51.734;8.744;2023-06-05T01:10:09;11.10;99.90
10980;DHT22;5543;51.734;8.744;2023-06-05T01:12:43;10.10;99.90
10980;DHT22;5543;51.734;8.744;2023-06-05T01:15:14;10.70;99.90
10980;DHT22;5543;51.734;8.744;2023-06-05T01:17:43;10.20;99.90
10980;DHT22;5543;51.734;8.744;2023-06-05T01:20:16;10.80;99.90
10980;DHT22;5543;51.734;8.744;2023-06-05T01:22:49;10.90;99.90
10980;DHT22;5543;51.734;8.744;2023-06-05T01:25:19;10.10;99.90
10980;DHT22;5543;51.734;8.744;2023-06-05T01:27:53;9.90;99.90
10980;DHT22;5543;51.734;8.744;2023-06-05T01:30:27;10.00;99.90
10980;DHT22;5543;51.734;8.744;2023-06-05T01:33:01;10.70;99.90
10980;DHT22;5543;51.734;8.744;2023-06-05T01:35:32;9.60;99.90
10980;DHT22;5543;51.734;8.744;2023-06-05T01:38:02;9.90;99.90
10980;DHT22;5543;51.734;8.744;2023-06-05T01:40:33;9.80;99.90
10980;DHT22;5543;51.734;8.744;2023-06-05T01:43:04;9.80;99.90
10980;DHT22;5543;51.734;8.744;2023-06-05T01:45:33;9.90;99.90
10980;DHT22;5543;51.734;8.744;2023-06-05T01:48:04;9.70;99.90
10980;DHT22;5543;51.734;8.744;2023-06-05T01:50:35;9.70;99.90
10980;DHT22;5543;51.734;8.744;2023-06-05T01:53:05;9.70;99.90
10980;DHT22;5543;51.734;8.744;2023-06-05T01:55:34;9.60;99.90
10980;DHT22;5543;51.734;8.744;2023-06-05T01:58:05;9.60;99.90
10980;DHT22;5543;51.734;8.744;2023-06-05T02:00:34;9.60;99.90
10980;DHT22;5543;51.734;8.744;2023-06-05T02:03:03;9.50;99.90
10980;DHT22;5543;51.734;8.744;2023-06-05T02:05:32;9.40;99.90
10980;DHT22;5543;51.734;8.744;2023-06-05T02:08:01;9.40;99.90
10980;DHT22;5543;51.734;8.744;2023-06-05T02:10:34;9.30;99.90
10980;DHT22;5543;51.734;8.744;2023-06-05T02:13:02;9.40;99.90
10980;DHT22;5543;51.734;8.744;2023-06-05T02:15:31;9.40;99.90
10980;DHT22;5543;51.734;8.744;2023-06-05T02:18:02;9.30;99.90
10980;DHT22;5543;51.734;8.744;2023-06-05T02:20:31;9.30;99.90
10980;DHT22;5543;51.734;8.744;2023-06-05T02:23:01;9.20;99.90
10980;DHT22;5543;51.734;8.744;2023-06-05T02:25:32;9.20;99.90
10980;DHT22;5543;51.734;8.744;2023-06-05T02:28:01;9.20;99.90
10980;DHT22;5543;51.734;8.744;2023-06-05T02:30:29;9.30;99.90
10980;DHT22;5543;51.734;8.744;2023-06-05T02:33:00;9.20;99.90
10980;DHT22;5543;51.734;8.744;2023-06-05T02:35:29;9.10;99.90
10980;DHT22;5543;51.734;8.744;2023-06-05T02:37:58;9.60;99.90
10980;DHT22;5543;51.734;8.744;2023-06-05T02:40:26;9.20;99.90
10980;DHT22;5543;51.734;8.744;2023-06-05T02:42:54;9.00;99.90
10980;DHT22;5543;51.734;8.744;2023-06-05T02:45:23;9.00;99.90
10980;DHT22;5543;51.734;8.744;2023-06-05T02:47:52;8.90;99.90
10980;DHT22;5543;51.734;8.744;2023-06-05T02:50:20;8.90;99.90
10980;DHT22;5543;51.734;8.744;2023-06-05T02:52:48;8.90;99.90
10980;DHT22;5543;51.734;8.744;2023-06-05T02:55:16;9.60;99.90
10980;DHT22;5543;51.734;8.744;2023-06-05T02:57:45;8.80;99.90
10980;DHT22;5543;51.734;8.744;2023-06-05T03:00:16;8.70;99.90
10980;DHT22;5543;51.734;8.744;2023-06-05T03:02:47;8.70;99.90
10980;DHT22;5543;51.734;8.744;2023-06-05T03:05:16;8.70;99.90
10980;DHT22;5543;51.734;8.744;2023-06-05T03:07:51;8.90;99.90
10980;DHT22;5543;51.734;8.744;2023-06-05T03:10:22;8.80;99.90
10980;DHT22;5543;51.734;8.744;2023-06-05T03:12:51;8.50;99.90
10980;DHT22;5543;51.734;8.744;2023-06-05T03:15:19;8.50;99.90
10980;DHT22;5543;51.734;8.744;2023-06-05T03:17:48;8.50;99.90
10980;DHT22;5543;51.734;8.744;2023-06-05T03:20:17;8.90;99.90
10980;DHT22;5543;51.734;8.744;2023-06-05T03:22:46;8.40;99.90
10980;DHT22;5543;51.734;8.744;2023-06-05T03:25:14;8.50;99.90
10980;DHT22;5543;51.734;8.744;2023-06-05T03:27:42;8.50;99.90
10980;DHT22;5543;51.734;8.744;2023-06-05T03:30:11;9.10;99.90
10980;DHT22;5543;51.734;8.744;2023-06-05T03:32:43;8.50;99.90
10980;DHT22;5543;51.734;8.744;2023-06-05T03:35:13;8.50;99.90
10980;DHT22;5543;51.734;8.744;2023-06-05T03:37:41;8.50;99.90
10980;DHT22;5543;51.734;8.744;2023-06-05T03:40:11;8.70;99.90
10980;DHT22;5543;51.734;8.744;2023-06-05T03:42:40;8.50;99.90
10980;DHT22;5543;51.734;8.744;2023-06-05T03:45:09;8.40;99.90
10980;DHT22;5543;51.734;8.744;2023-06-05T03:47:37;8.50;99.90
10980;DHT22;5543;51.734;8.744;2023-06-05T03:50:06;8.50;99.90
10980;DHT22;5543;51.734;8.744;2023-06-05T03:52:36;8.50;99.90
10980;DHT22;5543;51.734;8.744;2023-06-05T03:55:07;8.50;99.90
10980;DHT22;5543;51.734;8.744;2023-06-05T03:57:36;8.50;99.90
10980;DHT22;5543;51.734;8.744;2023-06-05T04:00:06;8.60;99.90
10980;DHT22;5543;51.734;8.744;2023-06-05T04:02:36;8.50;99.90
10980;DHT22;5543;51.734;8.744;2023-06-05T04:05:06;8.50;99.90
10980;DHT22;5543;51.734;8.744;2023-06-05T04:07:39;8.50;99.90
10980;DHT22;5543;51.734;8.744;2023-06-05T04:10:09;8.50;99.90
10980;DHT22;5543;51.734;8.744;2023-06-05T04:12:37;8.60;99.90
10980;DHT22;5543;51.734;8.744;2023-06-05T04:15:07;8.70;99.90
10980;DHT22;5543;51.734;8.744;2023-06-05T04:17:36;8.70;99.90
10980;DHT22;5543;51.734;8.744;2023-06-05T04:20:06;8.80;99.90
10980;DHT22;5543;51.734;8.744;2023-06-05T04:22:38;8.80;99.90
10980;DHT22;5543;51.734;8.744;2023-06-05T04:25:07;9.00;99.90
10980;DHT22;5543;51.734;8.744;2023-06-05T04:27:38;8.90;99.90
10980;DHT22;5543;51.734;8.744;2023-06-05T04:30:07;9.00;99.90
10980;DHT22;5543;51.734;8.744;2023-06-05T04:32:36;9.00;99.90
10980;DHT22;5543;51.734;8.744;2023-06-05T04:35:05;9.00;99.90
10980;DHT22;5543;51.734;8.744;2023-06-05T04:37:36;9.10;99.90
10980;DHT22;5543;51.734;8.744;2023-06-05T04:40:06;9.20;99.90
10980;DHT22;5543;51.734;8.744;2023-06-05T04:42:36;9.20;99.90
10980;DHT22;5543;51.734;8.744;2023-06-05T04:45:06;9.30;99.90
10980;DHT22;5543;51.734;8.744;2023-06-05T04:47:36;9.30;99.90
10980;DHT22;5543;51.734;8.744;2023-06-05T04:50:05;9.40;99.90
10980;DHT22;5543;51.734;8.744;2023-06-05T04:52:34;9.50;99.90
10980;DHT22;5543;51.734;8.744;2023-06-05T04:55:05;9.60;99.90
10980;DHT22;5543;51.734;8.744;2023-06-05T04:57:33;9.60;99.90
10980;DHT22;5543;51.734;8.744;2023-06-05T05:00:01;9.70;99.90
10980;DHT22;5543;51.734;8.744;2023-06-05T05:02:34;9.80;99.90
10980;DHT22;5543;51.734;8.744;2023-06-05T05:05:03;9.90;99.90
10980;DHT22;5543;51.734;8.744;2023-06-05T05:07:32;9.90;99.90
10980;DHT22;5543;51.734;8.744;2023-06-05T05:10:02;10.00;99.90
10980;DHT22;5543;51.734;8.744;2023-06-05T05:12:32;10.10;99.90
10980;DHT22;5543;51.734;8.744;2023-06-05T05:15:00;10.20;99.90
10980;DHT22;5543;51.734;8.744;2023-06-05T05:17:28;10.30;99.90
10980;DHT22;5543;51.734;8.744;2023-06-05T05:19:57;10.30;99.90
10980;DHT22;5543;51.734;8.744;2023-06-05T05:22:26;10.40;99.90
10980;DHT22;5543;51.734;8.744;2023-06-05T05:24:54;10.50;99.90
10980;DHT22;5543;51.734;8.744;2023-06-05T05:27:23;10.60;99.90
10980;DHT22;5543;51.734;8.744;2023-06-05T05:29:52;10.70;99.90
10980;DHT22;5543;51.734;8.744;2023-06-05T05:32:21;10.80;99.90
10980;DHT22;5543;51.734;8.744;2023-06-05T05:34:49;10.90;99.90
10980;DHT22;5543;51.734;8.744;2023-06-05T05:37:18;11.30;99.90
10980;DHT22;5543;51.734;8.744;2023-06-05T05:39:47;11.60;99.90
10980;DHT22;5543;51.734;8.744;2023-06-05T05:42:15;11.90;99.90
10980;DHT22;5543;51.734;8.744;2023-06-05T05:44:44;11.30;99.90
10980;DHT22;5543;51.734;8.744;2023-06-05T05:47:13;11.40;99.90
10980;DHT22;5543;51.734;8.744;2023-06-05T05:49:41;11.50;99.90
10980;DHT22;5543;51.734;8.744;2023-06-05T05:52:10;11.60;99.90
10980;DHT22;5543;51.734;8.744;2023-06-05T05:54:38;11.70;99.90
10980;DHT22;5543;51.734;8.744;2023-06-05T05:57:06;11.80;99.90
10980;DHT22;5543;51.734;8.744;2023-06-05T05:59:35;11.90;99.90
10980;DHT22;5543;51.734;8.744;2023-06-05T06:02:03;12.30;99.90
10980;DHT22;5543;51.734;8.744;2023-06-05T06:04:39;12.20;99.90
10980;DHT22;5543;51.734;8.744;2023-06-05T06:07:07;12.30;99.90
10980;DHT22;5543;51.734;8.744;2023-06-05T06:09:35;12.40;99.90
10980;DHT22;5543;51.734;8.744;2023-06-05T06:12:04;12.50;99.90
10980;DHT22;5543;51.734;8.744;2023-06-05T06:14:33;12.60;99.90
10980;DHT22;5543;51.734;8.744;2023-06-05T06:17:02;12.70;99.90
10980;DHT22;5543;51.734;8.744;2023-06-05T06:19:32;12.80;99.90
10980;DHT22;5543;51.734;8.744;2023-06-05T06:22:02;13.00;99.90
10980;DHT22;5543;51.734;8.744;2023-06-05T06:24:38;13.10;99.90
10980;DHT22;5543;51.734;8.744;2023-06-05T06:27:07;13.30;99.90
10980;DHT22;5543;51.734;8.744;2023-06-05T06:29:57;13.40;99.90
10980;DHT22;5543;51.734;8.744;2023-06-05T06:32:25;13.60;99.90
10980;DHT22;5543;51.734;8.744;2023-06-05T06:34:54;13.80;99.90
10980;DHT22;5543;51.734;8.744;2023-06-05T06:37:24;13.90;99.90
10980;DHT22;5543;51.734;8.744;2023-06-05T06:39:52;14.10;99.90
10980;DHT22;5543;51.734;8.744;2023-06-05T06:42:20;14.20;99.90
10980;DHT22;5543;51.734;8.744;2023-06-05T06:44:49;14.40;99.90
10980;DHT22;5543;51.734;8.744;2023-06-05T06:47:23;14.50;99.90
10980;DHT22;5543;51.734;8.744;2023-06-05T06:49:53;14.70;99.90
10980;DHT22;5543;51.734;8.744;2023-06-05T06:52:21;14.80;99.90
10980;DHT22;5543;51.734;8.744;2023-06-05T06:54:53;15.10;99.90
10980;DHT22;5543;51.734;8.744;2023-06-05T06:57:21;15.20;99.90
10980;DHT22;5543;51.734;8.744;2023-06-05T06:59:49;15.40;99.90
10980;DHT22;5543;51.734;8.744;2023-06-05T07:02:19;15.50;99.90
10980;DHT22;5543;51.734;8.744;2023-06-05T07:04:47;15.70;99.90
10980;DHT22;5543;51.734;8.744;2023-06-05T07:07:17;15.90;99.90
10980;DHT22;5543;51.734;8.744;2023-06-05T07:09:47;16.10;99.90
10980;DHT22;5543;51.734;8.744;2023-06-05T07:12:18;16.20;99.90
10980;DHT22;5543;51.734;8.744;2023-06-05T07:14:49;16.40;99.90
10980;DHT22;5543;51.734;8.744;2023-06-05T07:17:17;16.50;99.90
10980;DHT22;5543;51.734;8.744;2023-06-05T07:19:45;16.70;99.90
10980;DHT22;5543;51.734;8.744;2023-06-05T07:22:13;16.80;99.90
10980;DHT22;5543;51.734;8.744;2023-06-05T07:24:42;17.00;99.90
10980;DHT22;5543;51.734;8.744;2023-06-05T07:27:10;17.10;99.90
10980;DHT22;5543;51.734;8.744;2023-06-05T07:29:40;17.20;99.90
10980;DHT22;5543;51.734;8.744;2023-06-05T07:32:08;17.30;99.90
10980;DHT22;5543;51.734;8.744;2023-06-05T07:34:36;17.50;99.90
10980;DHT22;5543;51.734;8.744;2023-06-05T07:37:05;17.70;99.90
10980;DHT22;5543;51.734;8.744;2023-06-05T07:39:35;17.90;99.90
10980;DHT22;5543;51.734;8.744;2023-06-05T07:42:03;18.10;99.90
10980;DHT22;5543;51.734;8.744;2023-06-05T07:44:32;18.30;99.90
10980;DHT22;5543;51.734;8.744;2023-06-05T07:47:01;18.50;99.50
10980;DHT22;5543;51.734;8.744;2023-06-05T07:49:30;18.60;98.50
10980;DHT22;5543;51.734;8.744;2023-06-05T07:51:59;18.90;99.00
10980;DHT22;5543;51.734;8.744;2023-06-05T07:54:28;19.00;99.10
10980;DHT22;5543;51.734;8.744;2023-06-05T07:56:56;19.20;99.30
10980;DHT22;5543;51.734;8.744;2023-06-05T07:59:25;19.40;98.70
10980;DHT22;5543;51.734;8.744;2023-06-05T08:01:55;19.60;97.20
10980;DHT22;5543;51.734;8.744;2023-06-05T08:04:25;19.70;96.20
10980;DHT22;5543;51.734;8.744;2023-06-05T08:06:54;19.90;96.80
10980;DHT22;5543;51.734;8.744;2023-06-05T08:09:23;20.10;95.40
10980;DHT22;5543;51.734;8.744;2023-06-05T08:11:53;20.30;95.50
10980;DHT22;5543;51.734;8.744;2023-06-05T08:14:23;20.60;95.30
10980;DHT22;5543;51.734;8.744;2023-06-05T08:16:52;20.90;94.20
10980;DHT22;5543;51.734;8.744;2023-06-05T08:19:20;21.20;93.00
10980;DHT22;5543;51.734;8.744;2023-06-05T08:21:51;21.50;92.70
10980;DHT22;5543;51.734;8.744;2023-06-05T08:24:20;21.90;90.80
10980;DHT22;5543;51.734;8.744;2023-06-05T08:26:49;22.20;90.80
10980;DHT22;5543;51.734;8.744;2023-06-05T08:29:17;22.50;91.10
10980;DHT22;5543;51.734;8.744;2023-06-05T08:31:45;23.10;91.00
10980;DHT22;5543;51.734;8.744;2023-06-05T08:34:13;23.50;90.20
10980;DHT22;5543;51.734;8.744;2023-06-05T08:36:42;24.00;87.10
10980;DHT22;5543;51.734;8.744;2023-06-05T08:39:12;24.60;88.10
10980;DHT22;5543;51.734;8.744;2023-06-05T08:41:42;25.40;81.50
10980;DHT22;5543;51.734;8.744;2023-06-05T08:44:11;25.80;75.80
10980;DHT22;5543;51.734;8.744;2023-06-05T08:46:41;26.10;80.00
10980;DHT22;5543;51.734;8.744;2023-06-05T08:49:11;27.10;78.70
10980;DHT22;5543;51.734;8.744;2023-06-05T08:51:39;27.70;78.40
10980;DHT22;5543;51.734;8.744;2023-06-05T08:54:10;28.70;71.30
10980;DHT22;5543;51.734;8.744;2023-06-05T08:56:43;29.30;64.90
10980;DHT22;5543;51.734;8.744;2023-06-05T08:59:11;29.70;65.40
10980;DHT22;5543;51.734;8.744;2023-06-05T09:01:42;30.40;65.00
10980;DHT22;5543;51.734;8.744;2023-06-05T09:04:12;31.00;66.30
10980;DHT22;5543;51.734;8.744;2023-06-05T09:06:45;31.30;60.60
10980;DHT22;5543;51.734;8.744;2023-06-05T09:09:14;31.60;57.60
10980;DHT22;5543;51.734;8.744;2023-06-05T09:11:44;32.00;57.80
10980;DHT22;5543;51.734;8.744;2023-06-05T09:14:12;32.50;57.30
10980;DHT22;5543;51.734;8.744;2023-06-05T09:16:42;32.80;54.20
10980;DHT22;5543;51.734;8.744;2023-06-05T09:19:12;32.80;53.00
10980;DHT22;5543;51.734;8.744;2023-06-05T09:21:46;33.20;50.20
10980;DHT22;5543;51.734;8.744;2023-06-05T09:24:20;33.30;48.20
10980;DHT22;5543;51.734;8.744;2023-06-05T09:26:55;33.90;48.50
10980;DHT22;5543;51.734;8.744;2023-06-05T09:29:25;33.90;44.40
10980;DHT22;5543;51.734;8.744;2023-06-05T09:31:54;34.40;46.60
10980;DHT22;5543;51.734;8.744;2023-06-05T09:34:25;34.50;47.50
10980;DHT22;5543;51.734;8.744;2023-06-05T09:36:55;34.70;41.80
10980;DHT22;5543;51.734;8.744;2023-06-05T09:39:26;34.50;43.00
10980;DHT22;5543;51.734;8.744;2023-06-05T09:41:57;34.40;41.20
10980;DHT22;5543;51.734;8.744;2023-06-05T09:44:27;34.00;36.20
10980;DHT22;5543;51.734;8.744;2023-06-05T09:46:57;34.00;39.80
10980;DHT22;5543;51.734;8.744;2023-06-05T09:49:28;34.50;39.10
10980;DHT22;5543;51.734;8.744;2023-06-05T09:51:57;34.40;34.10
10980;DHT22;5543;51.734;8.744;2023-06-05T09:54:27;34.60;33.90
10980;DHT22;5543;51.734;8.744;2023-06-05T09:57:00;35.00;34.60
10980;DHT22;5543;51.734;8.744;2023-06-05T09:59:31;34.40;32.20
10980;DHT22;5543;51.734;8.744;2023-06-05T10:02:01;34.40;34.30
10980;DHT22;5543;51.734;8.744;2023-06-05T10:04:34;34.70;37.00
10980;DHT22;5543;51.734;8.744;2023-06-05T10:07:05;35.00;37.00
10980;DHT22;5543;51.734;8.744;2023-06-05T10:09:34;34.40;35.40
10980;DHT22;5543;51.734;8.744;2023-06-05T10:12:05;33.90;34.20
10980;DHT22;5543;51.734;8.744;2023-06-05T10:14:35;33.70;32.70
10980;DHT22;5543;51.734;8.744;2023-06-05T10:17:04;34.10;36.40
10980;DHT22;5543;51.734;8.744;2023-06-05T10:19:32;34.50;34.70
10980;DHT22;5543;51.734;8.744;2023-06-05T10:22:01;34.10;33.80
10980;DHT22;5543;51.734;8.744;2023-06-05T10:24:32;34.30;36.70
10980;DHT22;5543;51.734;8.744;2023-06-05T10:27:26;34.80;32.40
10980;DHT22;5543;51.734;8.744;2023-06-05T10:33:17;36.00;35.90
10980;DHT22;5543;51.734;8.744;2023-06-05T10:35:53;35.40;33.00
10980;DHT22;5543;51.734;8.744;2023-06-05T10:38:28;34.60;30.50
10980;DHT22;5543;51.734;8.744;2023-06-05T10:40:59;34.20;33.10
10980;DHT22;5543;51.734;8.744;2023-06-05T10:43:32;34.30;31.10
10980;DHT22;5543;51.734;8.744;2023-06-05T10:46:01;34.80;33.60
10980;DHT22;5543;51.734;8.744;2023-06-05T10:49:06;35.70;33.30
10980;DHT22;5543;51.734;8.744;2023-06-05T10:51:37;36.90;32.90
10980;DHT22;5543;51.734;8.744;2023-06-05T10:54:08;37.70;35.10
10980;DHT22;5543;51.734;8.744;2023-06-05T10:56:56;37.80;29.70
10980;DHT22;5543;51.734;8.744;2023-06-05T10:59:29;36.50;31.30
10980;DHT22;5543;51.734;8.744;2023-06-05T11:02:25;36.90;29.70
10980;DHT22;5543;51.734;8.744;2023-06-05T11:05:11;37.30;33.30
10980;DHT22;5543;51.734;8.744;2023-06-05T11:07:41;37.40;32.80
10980;DHT22;5543;51.734;8.744;2023-06-05T11:10:14;37.20;29.00
10980;DHT22;5543;51.734;8.744;2023-06-05T11:13:01;36.90;31.00
10980;DHT22;5543;51.734;8.744;2023-06-05T11:15:39;36.50;28.80
10980;DHT22;5543;51.734;8.744;2023-06-05T11:18:40;37.00;29.40
10980;DHT22;5543;51.734;8.744;2023-06-05T11:21:08;37.70;31.40
10980;DHT22;5543;51.734;8.744;2023-06-05T11:23:37;37.40;29.70
10980;DHT22;5543;51.734;8.744;2023-06-05T11:26:39;36.90;29.10
10980;DHT22;5543;51.734;8.744;2023-06-05T11:29:13;37.50;30.00
10980;DHT22;5543;51.734;8.744;2023-06-05T11:31:44;37.50;29.80
10980;DHT22;5543;51.734;8.744;2023-06-05T11:34:13;38.30;29.10
10980;DHT22;5543;51.734;8.744;2023-06-05T11:36:42;38.60;29.80
10980;DHT22;5543;51.734;8.744;2023-06-05T11:39:10;38.70;28.90
10980;DHT22;5543;51.734;8.744;2023-06-05T11:41:46;38.80;29.50
10980;DHT22;5543;51.734;8.744;2023-06-05T11:44:15;39.50;29.90
10980;DHT22;5543;51.734;8.744;2023-06-05T11:46:45;39.80;27.70
10980;DHT22;5543;51.734;8.744;2023-06-05T11:49:24;39.90;27.50
10980;DHT22;5543;51.734;8.744;2023-06-05T11:51:53;39.70;28.40
10980;DHT22;5543;51.734;8.744;2023-06-05T11:54:26;39.80;30.90
10980;DHT22;5543;51.734;8.744;2023-06-05T11:56:58;40.10;29.40
10980;DHT22;5543;51.734;8.744;2023-06-05T11:59:28;40.20;29.50
10980;DHT22;5543;51.734;8.744;2023-06-05T12:01:59;38.90;28.10
10980;DHT22;5543;51.734;8.744;2023-06-05T12:04:27;38.70;28.70
10980;DHT22;5543;51.734;8.744;2023-06-05T12:06:55;38.30;30.00
10980;DHT22;5543;51.734;8.744;2023-06-05T12:09:24;38.80;31.60
10980;DHT22;5543;51.734;8.744;2023-06-05T12:11:52;39.20;31.20
10980;DHT22;5543;51.734;8.744;2023-06-05T12:14:38;39.60;30.80
10980;DHT22;5543;51.734;8.744;2023-06-05T12:17:12;39.10;30.50
10980;DHT22;5543;51.734;8.744;2023-06-05T12:19:40;38.50;29.70
10980;DHT22;5543;51.734;8.744;2023-06-05T12:22:09;38.70;32.60
10980;DHT22;5543;51.734;8.744;2023-06-05T12:24:37;38.20;31.90
10980;DHT22;5543;51.734;8.744;2023-06-05T12:27:05;38.00;30.60
10980;DHT22;5543;51.734;8.744;2023-06-05T12:29:35;37.30;32.30
10980;DHT22;5543;51.734;8.744;2023-06-05T12:32:21;36.40;35.30
10980;DHT22;5543;51.734;8.744;2023-06-05T12:34:50;34.30;34.40
10980;DHT22;5543;51.734;8.744;2023-06-05T12:37:23;33.00;36.20
10980;DHT22;5543;51.734;8.744;2023-06-05T12:39:52;31.90;39.20
10980;DHT22;5543;51.734;8.744;2023-06-05T12:42:20;31.80;38.60
10980;DHT22;5543;51.734;8.744;2023-06-05T12:44:49;31.60;39.30
10980;DHT22;5543;51.734;8.744;2023-06-05T12:47:17;31.70;37.50
10980;DHT22;5543;51.734;8.744;2023-06-05T12:49:47;32.10;38.30
10980;DHT22;5543;51.734;8.744;2023-06-05T12:52:15;32.70;38.00
10980;DHT22;5543;51.734;8.744;2023-06-05T12:54:43;33.30;36.80
10980;DHT22;5543;51.734;8.744;2023-06-05T12:57:11;33.50;36.10
10980;DHT22;5543;51.734;8.744;2023-06-05T12:59:40;34.00;37.10
10980;DHT22;5543;51.734;8.744;2023-06-05T13:02:08;34.00;36.00
10980;DHT22;5543;51.734;8.744;2023-06-05T13:04:36;33.30;35.80
10980;DHT22;5543;51.734;8.744;2023-06-05T13:07:07;32.70;34.70
10980;DHT22;5543;51.734;8.744;2023-06-05T13:09:35;32.20;36.90
10980;DHT22;5543;51.734;8.744;2023-06-05T13:12:04;32.20;35.30
10980;DHT22;5543;51.734;8.744;2023-06-05T13:14:32;32.30;36.30
10980;DHT22;5543;51.734;8.744;2023-06-05T13:17:01;31.70;38.80
10980;DHT22;5543;51.734;8.744;2023-06-05T13:19:30;32.00;38.40
10980;DHT22;5543;51.734;8.744;2023-06-05T13:21:59;31.90;35.40
10980;DHT22;5543;51.734;8.744;2023-06-05T13:24:30;32.90;38.10
10980;DHT22;5543;51.734;8.744;2023-06-05T13:26:59;33.80;36.00
10980;DHT22;5543;51.734;8.744;2023-06-05T13:29:27;34.20;35.90
10980;DHT22;5543;51.734;8.744;2023-06-05T13:31:55;34.60;34.20
10980;DHT22;5543;51.734;8.744;2023-06-05T13:34:24;35.10;34.00
10980;DHT22;5543;51.734;8.744;2023-06-05T13:36:55;34.80;33.20
10980;DHT22;5543;51.734;8.744;2023-06-05T13:39:33;34.90;30.90
10980;DHT22;5543;51.734;8.744;2023-06-05T13:42:01;34.90;33.50
10980;DHT22;5543;51.734;8.744;2023-06-05T13:44:30;35.30;36.40
10980;DHT22;5543;51.734;8.744;2023-06-05T13:46:58;35.20;35.90
10980;DHT22;5543;51.734;8.744;2023-06-05T13:49:30;35.40;34.70
10980;DHT22;5543;51.734;8.744;2023-06-05T13:51:59;35.20;32.90
10980;DHT22;5543;51.734;8.744;2023-06-05T13:54:29;34.60;32.50
10980;DHT22;5543;51.734;8.744;2023-06-05T13:56:59;34.30;33.50
10980;DHT22;5543;51.734;8.744;2023-06-05T13:59:27;34.20;35.00
10980;DHT22;5543;51.734;8.744;2023-06-05T14:01:55;34.50;36.00
10980;DHT22;5543;51.734;8.744;2023-06-05T14:04:24;33.80;32.30
10980;DHT22;5543;51.734;8.744;2023-06-05T14:06:52;32.10;33.10
10980;DHT22;5543;51.734;8.744;2023-06-05T14:09:24;32.30;35.60
10980;DHT22;5543;51.734;8.744;2023-06-05T14:11:54;32.60;36.00
10980;DHT22;5543;51.734;8.744;2023-06-05T14:14:24;32.80;36.80
10980;DHT22;5543;51.734;8.744;2023-06-05T14:16:52;31.90;34.00
10980;DHT22;5543;51.734;8.744;2023-06-05T14:19:20;31.90;37.20
10980;DHT22;5543;51.734;8.744;2023-06-05T14:21:49;32.20;36.20
10980;DHT22;5543;51.734;8.744;2023-06-05T14:24:17;32.30;38.10
10980;DHT22;5543;51.734;8.744;2023-06-05T14:26:46;32.20;36.60
10980;DHT22;5543;51.734;8.744;2023-06-05T14:29:15;32.00;36.80
10980;DHT22;5543;51.734;8.744;2023-06-05T14:31:45;31.70;36.30
10980;DHT22;5543;51.734;8.744;2023-06-05T14:34:13;30.80;36.40
10980;DHT22;5543;51.734;8.744;2023-06-05T14:36:42;30.30;36.70
10980;DHT22;5543;51.734;8.744;2023-06-05T14:39:17;30.60;39.10
10980;DHT22;5543;51.734;8.744;2023-06-05T14:41:46;30.30;40.00
10980;DHT22;5543;51.734;8.744;2023-06-05T14:44:15;29.90;39.70
10980;DHT22;5543;51.734;8.744;2023-06-05T14:46:54;29.90;39.50
10980;DHT22;5543;51.734;8.744;2023-06-05T14:49:23;29.70;39.20
10980;DHT22;5543;51.734;8.744;2023-06-05T14:51:52;29.90;40.30
10980;DHT22;5543;51.734;8.744;2023-06-05T14:54:21;29.80;40.30
10980;DHT22;5543;51.734;8.744;2023-06-05T14:56:49;29.80;42.30
10980;DHT22;5543;51.734;8.744;2023-06-05T14:59:17;30.10;40.70
10980;DHT22;5543;51.734;8.744;2023-06-05T15:01:49;29.60;39.10
10980;DHT22;5543;51.734;8.744;2023-06-05T15:04:18;29.70;41.10
10980;DHT22;5543;51.734;8.744;2023-06-05T15:06:46;30.00;39.40
10980;DHT22;5543;51.734;8.744;2023-06-05T15:09:18;29.60;39.80
10980;DHT22;5543;51.734;8.744;2023-06-05T15:11:47;29.90;39.40
10980;DHT22;5543;51.734;8.744;2023-06-05T15:14:16;30.00;40.10
10980;DHT22;5543;51.734;8.744;2023-06-05T15:16:45;30.20;40.00
10980;DHT22;5543;51.734;8.744;2023-06-05T15:19:15;30.20;40.90
10980;DHT22;5543;51.734;8.744;2023-06-05T15:21:44;30.20;40.60
10980;DHT22;5543;51.734;8.744;2023-06-05T15:24:12;30.20;41.10
10980;DHT22;5543;51.734;8.744;2023-06-05T15:26:40;30.40;41.00
10980;DHT22;5543;51.734;8.744;2023-06-05T15:29:08;30.30;41.10
10980;DHT22;5543;51.734;8.744;2023-06-05T15:31:36;30.20;42.00
10980;DHT22;5543;51.734;8.744;2023-06-05T15:34:05;29.80;40.00
10980;DHT22;5543;51.734;8.744;2023-06-05T15:36:34;29.90;42.00
10980;DHT22;5543;51.734;8.744;2023-06-05T15:39:03;29.90;41.80
10980;DHT22;5543;51.734;8.744;2023-06-05T15:41:31;29.90;41.20
10980;DHT22;5543;51.734;8.744;2023-06-05T15:43:59;29.90;41.90
10980;DHT22;5543;51.734;8.744;2023-06-05T15:46:27;29.70;41.80
10980;DHT22;5543;51.734;8.744;2023-06-05T15:48:55;29.60;39.70
10980;DHT22;5543;51.734;8.744;2023-06-05T15:51:24;28.90;38.50
10980;DHT22;5543;51.734;8.744;2023-06-05T15:53:55;28.90;40.80
10980;DHT22;5543;51.734;8.744;2023-06-05T15:57:00;28.80;42.00
10980;DHT22;5543;51.734;8.744;2023-06-05T15:59:28;28.90;41.50
10980;DHT22;5543;51.734;8.744;2023-06-05T16:01:56;28.70;40.60
10980;DHT22;5543;51.734;8.744;2023-06-05T16:04:25;28.60;41.70
10980;DHT22;5543;51.734;8.744;2023-06-05T16:06:53;28.50;42.90
10980;DHT22;5543;51.734;8.744;2023-06-05T16:09:22;28.60;44.70
10980;DHT22;5543;51.734;8.744;2023-06-05T16:11:50;28.60;44.20